Terminal Aerodrome Forecast
Issued by NWS

Home | Current Version | Previous Version | Graphics & Text | Print | Product List | Glossary On
Versions: 1 2 3 4 5 6 7 8 9 10 11 12 13 14 15 16 17 18 19 20 21 22 23
798
FTUS43 KOAX 280236 AAA
TAFCDR
TAF AMD
KCDR 280236Z 2803/2824 02010KT 4SM -SN BKN008 OVC015
     FM280330 36008KT P6SM VCSH OVC008
     FM280500 34007KT 3SM BR OVC003
     FM281200 35006KT P6SM OVC003
     FM282100 07011KT P6SM OVC007=

USA.gov is the U.S. government's official web portal to all federal, state and local government web resources and services.